createdAt,value
2018-12-31T00:01:52.670Z,22.2
2018-12-31T00:06:58.840Z,22.2
2018-12-31T00:12:04.731Z,22.2
2018-12-31T00:17:10.860Z,22.2
2018-12-31T00:22:15.765Z,22.2
2018-12-31T00:27:21.749Z,22.2
2018-12-31T00:32:27.549Z,22.2
2018-12-31T00:37:32.619Z,22.1
2018-12-31T00:42:38.431Z,22.1
2018-12-31T00:47:44.367Z,22.2
2018-12-31T00:52:50.090Z,22
2018-12-31T00:57:56.207Z,22.1
2018-12-31T01:03:02.283Z,22.1
2018-12-31T01:08:07.966Z,22.1
2018-12-31T01:13:13.363Z,22.1
2018-12-31T01:18:17.419Z,22.1
2018-12-31T01:23:22.555Z,22.1
2018-12-31T01:28:27.636Z,22.1
2018-12-31T01:33:32.668Z,22.1
2018-12-31T01:38:38.416Z,22.1
2018-12-31T01:43:44.014Z,22
2018-12-31T01:48:49.433Z,22.1
2018-12-31T01:53:54.547Z,22
2018-12-31T01:59:00.548Z,22
2018-12-31T02:04:06.111Z,22
2018-12-31T02:09:12.179Z,22.6
2018-12-31T02:14:17.756Z,22
2018-12-31T02:19:22.949Z,21.9
2018-12-31T02:24:28.751Z,21.9
2018-12-31T02:29:34.855Z,21.9
2018-12-31T02:34:40.703Z,21.9
2018-12-31T02:39:46.222Z,21.9
2018-12-31T02:44:51.839Z,21.9
2018-12-31T02:49:57.197Z,21.9
2018-12-31T02:55:02.085Z,21.9
2018-12-31T03:30:32.369Z,21.8
2018-12-31T03:40:41.676Z,21.8
2018-12-31T03:45:46.695Z,21.8
2018-12-31T03:50:51.911Z,21.8
2018-12-31T03:55:57.415Z,21.8
2018-12-31T04:01:03.143Z,21.8
2018-12-31T04:06:08.621Z,21.8
2018-12-31T04:11:13.826Z,21.8
2018-12-31T04:16:19.638Z,21.7
2018-12-31T04:21:25.450Z,21.7
2018-12-31T04:26:30.404Z,21.7
2018-12-31T04:31:36.895Z,21.7
2018-12-31T04:36:42.373Z,21.7
2018-12-31T04:41:47.676Z,21.7
2018-12-31T04:46:53.031Z,21.9
2018-12-31T04:51:58.706Z,22.1
2018-12-31T04:57:03.492Z,22.4
2018-12-31T05:12:18.699Z,22.6
2018-12-31T05:17:24.334Z,22.6
2018-12-31T05:22:28.877Z,22.7
2018-12-31T05:27:34.408Z,22.9
2018-12-31T05:32:40.522Z,22.9
2018-12-31T05:37:48.545Z,23.1
2018-12-31T05:47:59.060Z,23.1
2018-12-31T05:53:04.923Z,23.1
2018-12-31T05:58:10.673Z,23.1
2018-12-31T06:08:21.032Z,22.9
2018-12-31T06:13:26.773Z,22.9
2018-12-31T06:18:32.277Z,23
2018-12-31T06:23:37.537Z,22.9
2018-12-31T06:28:42.497Z,23
2018-12-31T06:33:47.806Z,22.9
2018-12-31T07:09:22.901Z,23
2018-12-31T07:14:28.281Z,22.9
2018-12-31T07:19:33.638Z,23
2018-12-31T07:24:39.695Z,22.9
2018-12-31T07:29:45.354Z,22.9
2018-12-31T07:34:50.414Z,22.9
2018-12-31T07:39:55.985Z,22.9
2018-12-31T07:45:02.069Z,22.8
2018-12-31T07:50:07.888Z,22.8
2018-12-31T07:55:13.563Z,22.9
2018-12-31T08:05:23.528Z,22.9
2018-12-31T08:10:29.120Z,23
2018-12-31T08:15:35.030Z,23
2018-12-31T08:25:43.596Z,23.1
2018-12-31T08:30:48.963Z,23.3
2018-12-31T08:35:55.284Z,23.2
2018-12-31T08:41:01.130Z,23.2
2018-12-31T08:51:11.468Z,23.2
2018-12-31T08:56:17.734Z,23.2
2018-12-31T09:01:22.797Z,23.3
2018-12-31T09:06:28.348Z,23.4
2018-12-31T09:11:33.118Z,23.3
2018-12-31T09:16:38.901Z,23.3
2018-12-31T09:21:44.029Z,23.3
2018-12-31T09:26:50.092Z,23.4
2018-12-31T09:31:56.084Z,23.3
2018-12-31T09:37:01.727Z,23.3
2018-12-31T09:42:07.101Z,23.3
2018-12-31T09:47:07.377Z,23.4
2018-12-31T09:52:13.216Z,23.4
2018-12-31T09:57:18.881Z,23.4
2018-12-31T10:02:24.548Z,23.4
2018-12-31T10:07:30.073Z,23.4
2018-12-31T10:17:40.019Z,23.4
2018-12-31T10:22:45.838Z,23.4
2018-12-31T10:27:53.666Z,23.5
2018-12-31T10:32:59.254Z,23.5
2018-12-31T10:38:05.202Z,23.5
2018-12-31T10:43:11.276Z,23.4
2018-12-31T10:48:17.248Z,23.4
2018-12-31T10:53:23.848Z,23.4
2018-12-31T10:58:29.633Z,23.4
2018-12-31T11:03:35.165Z,23.5
2018-12-31T11:08:41.010Z,23.5
2018-12-31T11:13:46.556Z,23.4
2018-12-31T11:18:51.712Z,23.3
2018-12-31T11:23:57.337Z,23.2
2018-12-31T11:34:07.651Z,23.1
2018-12-31T11:39:13.171Z,23
2018-12-31T11:44:18.965Z,23
2018-12-31T12:04:38.665Z,22.7
2018-12-31T12:09:44.720Z,22.8
2018-12-31T12:14:50.212Z,22.8
2018-12-31T12:19:55.766Z,22.8
2018-12-31T12:30:07.233Z,22.8
2018-12-31T12:45:26.744Z,22
2018-12-31T12:50:32.702Z,22.8
2018-12-31T12:55:38.515Z,22.7
2018-12-31T13:00:44.059Z,22.7
2018-12-31T13:05:50.006Z,22.7
2018-12-31T13:10:55.761Z,22.8
2018-12-31T13:16:01.640Z,22.8
2018-12-31T13:21:07.442Z,22.8
2018-12-31T13:26:12.920Z,22.8
2018-12-31T13:31:18.032Z,22.8
2018-12-31T13:36:25.144Z,22.8
2018-12-31T13:41:31.012Z,22.7
2018-12-31T13:46:37.094Z,22.6
2018-12-31T13:51:42.360Z,22.6
2018-12-31T13:56:47.543Z,22.7
2018-12-31T14:01:53.888Z,22.7
2018-12-31T14:06:58.952Z,22.7
2018-12-31T14:12:05.615Z,22.6
2018-12-31T14:17:09.768Z,22.6
2018-12-31T14:22:14.862Z,22.6
2018-12-31T14:27:19.967Z,22.5
2018-12-31T18:01:10.893Z,22
2018-12-31T18:06:16.485Z,21.9
2018-12-31T18:11:22.314Z,22
2018-12-31T18:16:28.133Z,21.9
2018-12-31T18:21:33.918Z,21.9
2018-12-31T18:26:34.734Z,21.9
2018-12-31T18:31:40.325Z,21.9
2018-12-31T18:36:44.814Z,21.9
2018-12-31T18:41:50.798Z,21.9
2018-12-31T18:46:57.066Z,21.9
2018-12-31T18:52:06.171Z,21.8
2018-12-31T18:57:12.258Z,21.8
2018-12-31T19:02:17.956Z,21.8
2018-12-31T19:07:23.609Z,21.8
2018-12-31T19:17:35.886Z,21.8
2018-12-31T19:27:46.112Z,21.8
2018-12-31T19:32:51.997Z,21.8
2018-12-31T19:43:01.589Z,21.8
2018-12-31T19:58:13.688Z,21.8
2018-12-31T20:08:22.822Z,21.8
2018-12-31T20:13:29.289Z,21.8
2018-12-31T20:18:34.579Z,21.7
2018-12-31T20:23:40.492Z,21.7
2018-12-31T20:33:49.976Z,21.7
2018-12-31T20:44:02.191Z,21.7
2018-12-31T20:49:07.435Z,21.7
2018-12-31T20:54:14.217Z,21.7
2018-12-31T20:59:19.573Z,21.6
2018-12-31T21:14:35.656Z,21.7
2018-12-31T21:19:40.249Z,21.6
2018-12-31T21:29:49.495Z,21.6
2018-12-31T21:34:55.093Z,21.6
2018-12-31T21:40:01.269Z,21.6
2018-12-31T21:45:06.437Z,21.6
2018-12-31T21:50:12.669Z,21.6
2018-12-31T21:55:17.929Z,21.5
2018-12-31T22:00:23.919Z,21.6
2018-12-31T22:05:29.411Z,21.6
2018-12-31T22:10:36.219Z,21.5
2018-12-31T22:15:41.527Z,21.5
2018-12-31T22:30:53.777Z,21.5
2018-12-31T22:35:59.976Z,21.5
2018-12-31T22:41:06.348Z,21.5
2018-12-31T22:56:20.398Z,21.5
2018-12-31T23:01:26.517Z,21.5
2018-12-31T23:06:31.508Z,21.5
2018-12-31T23:11:37.114Z,21.5
2018-12-31T23:16:43.407Z,21.5
2018-12-31T23:21:48.654Z,21.4
2018-12-31T23:26:54.292Z,21.5
2018-12-31T23:31:59.364Z,21.4
2018-12-31T23:37:05.822Z,21.4
2018-12-31T23:42:12.060Z,21.4
2018-12-31T23:52:21.740Z,21.4
2018-12-31T23:57:27.983Z,21.4
